Time;durP1;ratioP1;P1;durP2;ratioP2;P2;SDS_P1;SDS_P2;PMS_P1;PMS_P2;Temp;Humidity;BMP_temperature;BMP_pressure;BME280_temperature;BME280_humidity;BME280_pressure;Samples;Min_cycle;Max_cycle;Signal;HPM_P1;HPM_P2
2024/01/25 00:00:27;;;;;;;30.77;5.50;;;8.20;99.90;;;;;;6214804;23;20287;-80
2024/01/25 00:03:14;;;;;;;33.28;6.15;;;8.20;99.90;;;;;;6212911;23;20025;-81
2024/01/25 00:06:07;;;;;;;24.15;5.15;;;8.20;99.90;;;;;;6205659;23;20035;-81
2024/01/25 00:08:54;;;;;;;31.75;6.60;;;8.20;99.90;;;;;;6210391;23;20076;-78
2024/01/25 00:11:43;;;;;;;28.33;4.65;;;8.20;99.90;;;;;;6172525;23;20024;-82
2024/01/25 00:14:32;;;;;;;34.88;5.78;;;8.20;99.90;;;;;;6208570;23;20048;-78
2024/01/25 00:17:19;;;;;;;27.52;5.00;;;8.10;99.90;;;;;;6199704;23;20043;-79
2024/01/25 00:20:09;;;;;;;35.42;5.55;;;8.10;99.90;;;;;;6211451;23;20415;-80
2024/01/25 00:22:57;;;;;;;22.20;4.80;;;8.10;99.90;;;;;;6180728;23;20748;-82
2024/01/25 00:25:45;;;;;;;34.80;5.47;;;8.20;99.90;;;;;;6203317;23;20055;-83
2024/01/25 00:28:33;;;;;;;32.53;5.35;;;8.20;99.90;;;;;;6182093;23;20039;-80
2024/01/25 00:31:20;;;;;;;31.42;5.80;;;8.10;99.90;;;;;;6206300;23;20830;-81
2024/01/25 00:34:08;;;;;;;38.40;6.78;;;8.20;99.90;;;;;;6204208;23;20094;-81
2024/01/25 00:36:56;;;;;;;28.38;4.55;;;8.20;99.90;;;;;;6204980;23;20126;-80
2024/01/25 00:39:46;;;;;;;27.17;5.78;;;8.20;99.90;;;;;;6199467;23;20092;-77
2024/01/25 00:42:53;;;;;;;34.47;6.03;;;8.10;99.90;;;;;;6227557;22;20029;-79
2024/01/25 00:45:44;;;;;;;35.22;6.10;;;8.00;1.00;;;;;;6215692;23;20321;-79
2024/01/25 00:48:32;;;;;;;33.97;5.80;;;7.90;1.00;;;;;;6216741;23;20081;-81
2024/01/25 00:51:23;;;;;;;30.08;5.78;;;7.90;54.70;;;;;;6207819;23;20474;-81
2024/01/25 00:54:10;;;;;;;24.08;5.22;;;7.80;5.60;;;;;;6206158;23;20031;-81
2024/01/25 00:56:58;;;;;;;26.48;5.32;;;7.90;99.90;;;;;;6216757;23;20025;-81
2024/01/25 00:59:46;;;;;;;25.15;5.32;;;7.90;99.90;;;;;;6208069;23;20048;-80
2024/01/25 01:02:42;;;;;;;34.63;5.53;;;8.00;1.00;;;;;;6216138;23;20040;-78
2024/01/25 01:05:31;;;;;;;32.17;5.10;;;7.90;99.90;;;;;;6222865;23;20081;-80
2024/01/25 01:08:21;;;;;;;27.98;4.47;;;7.80;1.00;;;;;;6204997;23;20028;-80
2024/01/25 01:11:10;;;;;;;26.90;5.18;;;7.70;10.20;;;;;;6203105;23;20052;-81
2024/01/25 01:13:57;;;;;;;30.17;4.47;;;7.60;76.30;;;;;;6161600;23;20686;-83
2024/01/25 01:16:45;;;;;;;26.95;5.63;;;7.60;99.90;;;;;;6203914;23;20409;-80
2024/01/25 01:19:32;;;;;;;18.77;4.22;;;7.60;99.90;;;;;;6202944;23;20116;-81
2024/01/25 01:22:22;;;;;;;17.83;4.07;;;7.70;99.30;;;;;;6203825;23;20052;-81
2024/01/25 01:25:10;;;;;;;24.90;4.13;;;7.70;80.60;;;;;;6202120;23;20029;-81
2024/01/25 01:27:57;;;;;;;30.23;4.07;;;7.70;47.20;;;;;;6210026;23;20738;-82
2024/01/25 01:30:45;;;;;;;30.98;4.75;;;7.70;1.00;;;;;;6213019;23;20131;-82
2024/01/25 01:33:38;;;;;;;30.85;5.30;;;7.80;1.00;;;;;;6198595;23;20445;-83
2024/01/25 01:36:27;;;;;;;32.90;6.00;;;7.80;1.00;;;;;;6203790;23;20108;-76
2024/01/25 01:39:17;;;;;;;30.60;4.53;;;7.80;99.90;;;;;;6213908;23;20460;-81
2024/01/25 01:42:07;;;;;;;27.85;4.68;;;7.80;99.90;;;;;;6215729;23;20076;-81
2024/01/25 01:44:56;;;;;;;28.98;6.13;;;7.80;3.70;;;;;;6202215;23;20031;-81
2024/01/25 01:47:52;;;;;;;30.15;4.82;;;7.80;99.90;;;;;;6195789;23;20633;-79
2024/01/25 01:50:42;;;;;;;21.75;4.63;;;7.80;99.90;;;;;;6182962;23;20020;-82
2024/01/25 01:53:32;;;;;;;28.30;4.60;;;7.80;99.90;;;;;;6203101;23;20033;-78
2024/01/25 01:56:20;;;;;;;32.30;5.18;;;7.70;1.00;;;;;;6182643;23;20056;-82
2024/01/25 01:59:12;;;;;;;34.95;5.03;;;7.70;99.90;;;;;;6201036;23;20036;-82
2024/01/25 02:01:59;;;;;;;35.65;5.30;;;7.70;99.90;;;;;;6178933;23;20055;-80
2024/01/25 02:04:48;;;;;;;30.83;5.15;;;7.70;99.90;;;;;;6206472;23;20025;-82
2024/01/25 02:07:37;;;;;;;21.38;4.72;;;7.70;99.90;;;;;;6207962;23;20031;-78
2024/01/25 02:10:25;;;;;;;27.55;4.85;;;7.70;99.90;;;;;;6207390;23;20047;-78
2024/01/25 02:13:12;;;;;;;26.92;4.68;;;7.80;99.90;;;;;;6208789;23;20029;-81
2024/01/25 02:16:00;;;;;;;26.77;4.60;;;7.70;99.90;;;;;;6215624;23;20032;-79
2024/01/25 02:18:48;;;;;;;35.40;4.80;;;7.80;99.90;;;;;;6210316;23;20028;-82
2024/01/25 02:21:35;;;;;;;24.90;4.82;;;7.70;99.90;;;;;;6189739;23;20079;-80
2024/01/25 02:24:23;;;;;;;35.65;5.30;;;7.70;99.90;;;;;;6190563;23;20099;-78
2024/01/25 02:27:11;;;;;;;21.27;4.25;;;7.70;99.90;;;;;;6191179;23;20020;-82
2024/01/25 02:29:59;;;;;;;28.60;5.28;;;7.70;1.00;;;;;;6204389;23;20115;-82
2024/01/25 02:32:49;;;;;;;26.58;5.13;;;7.70;99.90;;;;;;6200317;23;20585;-80
2024/01/25 02:35:38;;;;;;;28.02;4.70;;;7.70;99.90;;;;;;6180996;23;20033;-80
2024/01/25 02:38:25;;;;;;;28.67;5.30;;;7.70;1.00;;;;;;6202690;23;20047;-80
2024/01/25 02:41:12;;;;;;;19.50;5.38;;;7.70;1.00;;;;;;6179571;23;20043;-83
2024/01/25 02:44:04;;;;;;;31.70;6.55;;;7.60;1.00;;;;;;6202519;23;20021;-80
2024/01/25 02:46:55;;;;;;;28.75;6.03;;;7.60;1.00;;;;;;6201284;23;20032;-82
2024/01/25 02:49:46;;;;;;;26.00;5.38;;;7.60;1.00;;;;;;6183525;23;20071;-79
2024/01/25 02:52:34;;;;;;;33.67;5.30;;;7.50;1.00;;;;;;6163361;23;20029;-80
2024/01/25 02:55:21;;;;;;;30.38;4.88;;;7.50;1.00;;;;;;6204543;23;20368;-78
2024/01/25 02:58:11;;;;;;;29.15;4.72;;;7.50;1.00;;;;;;6201906;23;20028;-79
2024/01/25 03:01:02;;;;;;;30.23;6.07;;;7.60;99.90;;;;;;6179785;23;20654;-79
2024/01/25 03:03:51;;;;;;;28.45;4.75;;;7.60;99.90;;;;;;6191391;23;20474;-78
2024/01/25 03:06:41;;;;;;;28.25;4.65;;;7.60;99.90;;;;;;6190513;23;20215;-81
2024/01/25 03:09:29;;;;;;;33.15;4.80;;;7.60;99.90;;;;;;6195904;23;20484;-82
2024/01/25 03:12:17;;;;;;;19.65;4.45;;;7.60;99.90;;;;;;6212341;23;20035;-78
2024/01/25 03:15:06;;;;;;;26.83;5.03;;;7.60;99.90;;;;;;6237322;23;20035;-80
2024/01/25 03:17:59;;;;;;;32.13;5.32;;;7.60;99.90;;;;;;6215268;23;20025;-81
2024/01/25 03:20:53;;;;;;;32.75;5.72;;;7.60;99.90;;;;;;6185954;23;20038;-78
2024/01/25 03:23:40;;;;;;;29.75;4.20;;;7.50;99.90;;;;;;6209415;23;20021;-81
2024/01/25 03:26:28;;;;;;;23.35;3.85;;;7.60;99.90;;;;;;6203417;23;20035;-81
2024/01/25 03:29:15;;;;;;;24.15;4.05;;;7.60;99.90;;;;;;6219230;23;20080;-79
2024/01/25 03:32:04;;;;;;;30.90;4.55;;;7.60;99.90;;;;;;6196733;23;20075;-78
2024/01/25 03:34:51;;;;;;;21.23;3.95;;;7.60;99.90;;;;;;6204193;23;20490;-81
2024/01/25 03:37:40;;;;;;;21.10;4.45;;;7.50;99.90;;;;;;6201353;23;20076;-78
2024/01/25 03:40:28;;;;;;;22.33;4.03;;;7.50;99.90;;;;;;6216327;23;20036;-81
2024/01/25 03:43:24;;;;;;;32.25;4.28;;;7.50;54.20;;;;;;6203538;23;20021;-80
2024/01/25 03:46:29;;;;;;;20.60;4.72;;;7.50;1.00;;;;;;6201596;23;20060;-81
2024/01/25 03:49:18;;;;;;;25.75;4.47;;;7.50;1.00;;;;;;6213782;23;20025;-77
2024/01/25 03:52:07;;;;;;;24.40;4.40;;;7.50;1.00;;;;;;6215301;23;20039;-79
2024/01/25 03:54:58;;;;;;;21.85;3.30;;;7.50;99.90;;;;;;6222623;23;20131;-79
2024/01/25 03:57:48;;;;;;;19.38;3.97;;;7.50;99.90;;;;;;6190300;23;20379;-80
2024/01/25 04:00:41;;;;;;;32.75;5.50;;;7.50;99.90;;;;;;6212844;23;20090;-78
2024/01/25 04:03:29;;;;;;;29.83;5.07;;;7.40;99.90;;;;;;6193715;23;20035;-79
2024/01/25 04:06:22;;;;;;;28.77;5.28;;;7.40;99.90;;;;;;6209423;23;20079;-79
2024/01/25 04:09:10;;;;;;;26.08;4.85;;;7.40;99.90;;;;;;6199957;23;20100;-76
2024/01/25 04:11:59;;;;;;;15.88;3.63;;;7.40;1.00;;;;;;6214071;23;20604;-80
2024/01/25 04:14:47;;;;;;;29.52;4.70;;;7.40;99.90;;;;;;6225584;23;20051;-78
2024/01/25 04:17:36;;;;;;;25.92;4.47;;;7.40;99.90;;;;;;6212442;23;20025;-80
2024/01/25 04:20:25;;;;;;;26.38;4.22;;;7.40;99.90;;;;;;6202832;23;20021;-80
2024/01/25 04:23:13;;;;;;;24.95;4.93;;;7.40;99.90;;;;;;6201721;23;20562;-80
2024/01/25 04:26:01;;;;;;;21.15;4.53;;;7.30;99.90;;;;;;6202123;23;20031;-82
2024/01/25 04:28:51;;;;;;;26.92;5.25;;;7.30;99.90;;;;;;6180059;23;20073;-82
2024/01/25 04:31:45;;;;;;;22.52;4.90;;;7.30;99.90;;;;;;6197882;23;20040;-81
2024/01/25 04:34:33;;;;;;;26.77;4.75;;;7.30;99.90;;;;;;6202779;23;20036;-81
2024/01/25 04:37:20;;;;;;;20.58;4.07;;;7.30;99.90;;;;;;6200566;23;20028;-80
2024/01/25 04:40:09;;;;;;;21.13;4.05;;;7.20;99.90;;;;;;6181599;23;20547;-81
2024/01/25 04:42:58;;;;;;;22.52;5.47;;;7.20;99.90;;;;;;6203097;23;20028;-77
2024/01/25 04:45:47;;;;;;;21.80;4.60;;;7.20;99.90;;;;;;6212210;23;20958;-81
2024/01/25 04:48:35;;;;;;;25.92;4.85;;;7.20;99.90;;;;;;6213087;23;20074;-81
2024/01/25 04:51:26;;;;;;;23.13;4.35;;;7.20;99.90;;;;;;6193301;23;20567;-81
2024/01/25 04:54:15;;;;;;;25.42;4.30;;;7.20;99.90;;;;;;6211793;23;20822;-79
2024/01/25 04:57:10;;;;;;;26.42;5.00;;;7.20;99.90;;;;;;6212212;23;20038;-80
2024/01/25 04:59:58;;;;;;;23.10;4.65;;;7.20;99.90;;;;;;6207893;23;20044;-81
2024/01/25 05:02:45;;;;;;;28.35;4.88;;;7.20;99.90;;;;;;6199698;23;20024;-79
2024/01/25 05:05:32;;;;;;;20.35;3.65;;;7.10;99.90;;;;;;6202655;23;20029;-78
2024/01/25 05:08:21;;;;;;;26.33;4.55;;;7.10;99.90;;;;;;6179208;23;20591;-81
2024/01/25 05:11:08;;;;;;;22.80;4.72;;;7.10;99.90;;;;;;6203545;23;20337;-80
2024/01/25 05:13:56;;;;;;;23.23;4.85;;;7.20;99.90;;;;;;6200282;23;20024;-80
2024/01/25 05:16:43;;;;;;;22.30;4.47;;;7.20;99.90;;;;;;6198939;23;20040;-81
2024/01/25 05:19:31;;;;;;;26.20;4.90;;;7.20;99.90;;;;;;6201690;23;20416;-79
2024/01/25 05:22:18;;;;;;;30.25;5.10;;;7.20;99.90;;;;;;6203642;23;20043;-79
2024/01/25 05:25:09;;;;;;;32.03;5.05;;;7.20;99.90;;;;;;6179393;23;20118;-82
2024/01/25 05:28:02;;;;;;;35.17;5.28;;;7.20;99.90;;;;;;6205219;23;20031;-80
2024/01/25 05:30:52;;;;;;;35.05;5.07;;;7.20;99.90;;;;;;6210371;23;20029;-79
2024/01/25 05:33:40;;;;;;;33.22;5.03;;;7.20;99.90;;;;;;6199180;23;20024;-80
2024/01/25 05:36:31;;;;;;;30.33;5.60;;;7.20;99.90;;;;;;6200485;23;20029;-80
2024/01/25 05:39:23;;;;;;;27.15;5.40;;;7.00;99.90;;;;;;6209013;23;20035;-80
2024/01/25 05:42:15;;;;;;;26.15;6.20;;;6.90;99.90;;;;;;6213672;23;20047;-80
2024/01/25 05:45:07;;;;;;;17.65;4.47;;;6.80;99.90;;;;;;6211629;23;20091;-81
2024/01/25 05:47:54;;;;;;;30.38;6.13;;;6.70;99.90;;;;;;6204625;23;20027;-80
2024/01/25 05:50:42;;;;;;;27.08;5.72;;;6.60;99.90;;;;;;6222110;23;20016;-78
2024/01/25 05:53:31;;;;;;;28.33;5.20;;;6.50;99.90;;;;;;6218336;23;20038;-81
2024/01/25 05:56:19;;;;;;;24.80;5.07;;;6.40;99.90;;;;;;6206702;23;20031;-81
2024/01/25 05:59:06;;;;;;;28.42;5.82;;;6.40;99.90;;;;;;6207732;23;20035;-82
2024/01/25 06:01:54;;;;;;;21.50;4.60;;;6.30;99.90;;;;;;6207324;23;20029;-82
2024/01/25 06:04:43;;;;;;;25.70;6.13;;;6.40;99.90;;;;;;6203475;23;20559;-79
2024/01/25 06:07:31;;;;;;;31.27;6.95;;;6.30;99.90;;;;;;6203866;23;20020;-81
2024/01/25 06:10:50;;;;;;;43.03;9.18;;;6.30;99.90;;;;;;6202877;23;20127;-80
2024/01/25 06:13:42;;;;;;;26.45;5.85;;;6.30;99.90;;;;;;6183765;23;20025;-84
2024/01/25 06:16:33;;;;;;;33.25;6.28;;;6.20;99.90;;;;;;6200555;23;20474;-85
2024/01/25 06:19:34;;;;;;;21.45;5.38;;;6.20;99.90;;;;;;6205093;23;20030;-85
2024/01/25 06:22:34;;;;;;;31.45;7.32;;;6.10;99.90;;;;;;6184451;23;20118;-82
2024/01/25 06:26:00;;;;;;;27.67;6.53;;;6.00;99.90;;;;;;6189558;23;20033;-82
2024/01/25 06:29:21;;;;;;;26.17;7.22;;;5.80;99.90;;;;;;6205357;23;20027;-82
2024/01/25 06:32:22;;;;;;;36.20;9.65;;;5.70;99.90;;;;;;6182289;23;20036;-83
2024/01/25 06:35:22;;;;;;;59.30;15.48;;;5.50;99.90;;;;;;6207542;23;20032;-78
2024/01/25 06:38:39;;;;;;;58.83;12.43;;;5.50;99.90;;;;;;6204905;23;20028;-85
2024/01/25 06:41:49;;;;;;;34.50;8.18;;;5.40;99.90;;;;;;6183941;23;20044;-78
2024/01/25 06:44:42;;;;;;;36.45;6.47;;;5.40;99.90;;;;;;6183888;23;20040;-82
2024/01/25 06:47:34;;;;;;;34.97;5.85;;;5.30;99.90;;;;;;6203890;23;20036;-82
2024/01/25 06:50:29;;;;;;;24.08;4.55;;;5.20;99.90;;;;;;6203482;23;20021;-81
2024/01/25 06:53:20;;;;;;;24.65;4.82;;;5.20;99.90;;;;;;6187126;23;20051;-81
2024/01/25 06:56:19;;;;;;;31.67;4.68;;;5.10;99.90;;;;;;6205446;23;20048;-83
2024/01/25 06:59:09;;;;;;;27.02;5.15;;;5.00;99.90;;;;;;6219875;23;20088;-81
2024/01/25 07:02:04;;;;;;;56.47;19.55;;;5.10;99.90;;;;;;6207782;23;20044;-79
2024/01/25 07:05:04;;;;;;;31.13;5.97;;;5.10;99.90;;;;;;6168947;23;20052;-81
2024/01/25 07:07:59;;;;;;;;;;;5.10;99.90;;;;;;6225641;23;20028;-80
2024/01/25 07:11:05;;;;;;;33.42;6.72;;;5.00;99.90;;;;;;6192406;23;19926;-83
2024/01/25 07:14:08;;;;;;;22.98;5.32;;;5.00;99.90;;;;;;6204396;23;20094;-80
2024/01/25 07:17:07;;;;;;;30.63;6.72;;;4.90;99.90;;;;;;6202697;23;20102;-81
2024/01/25 07:20:02;;;;;;;31.83;6.28;;;5.00;99.90;;;;;;6181345;23;20028;-80
2024/01/25 07:23:10;;;;;;;31.75;5.50;;;5.10;99.90;;;;;;6205687;23;20107;-80
2024/01/25 07:26:07;;;;;;;38.85;6.40;;;5.10;99.90;;;;;;6183925;23;20025;-83
2024/01/25 07:29:03;;;;;;;26.48;5.50;;;5.20;99.90;;;;;;6204521;23;20352;-81
2024/01/25 07:32:01;;;;;;;29.80;6.32;;;5.30;99.90;;;;;;6184832;22;20405;-81
2024/01/25 07:35:00;;;;;;;35.53;6.22;;;5.30;99.90;;;;;;6210688;22;20028;-81
2024/01/25 07:38:06;;;;;;;31.33;6.25;;;5.40;99.90;;;;;;6214834;22;20028;-82
2024/01/25 07:41:07;;;;;;;31.75;6.22;;;5.50;99.90;;;;;;6203507;23;20028;-81
2024/01/25 07:44:06;;;;;;;32.13;7.20;;;5.60;99.90;;;;;;6201810;23;20082;-82
2024/01/25 07:47:22;;;;;;;28.10;6.18;;;5.60;99.90;;;;;;6180988;23;20024;-82
2024/01/25 07:50:29;;;;;;;;;;;5.60;99.90;;;;;;6213018;23;20076;-82
2024/01/25 07:54:06;;;;;;;24.55;5.28;;;5.50;99.90;;;;;;6199134;23;19923;-81
2024/01/25 07:57:13;;;;;;;28.17;6.38;;;5.50;99.90;;;;;;6211339;23;20042;-83
2024/01/25 08:00:27;;;;;;;28.50;5.93;;;5.70;99.90;;;;;;6228864;22;20044;-80
2024/01/25 08:03:26;;;;;;;24.42;5.90;;;5.80;99.90;;;;;;6232369;22;20025;-81
2024/01/25 08:06:27;;;;;;;25.15;5.22;;;5.90;99.90;;;;;;6172007;23;20037;-83
2024/01/25 08:09:33;;;;;;;32.55;5.47;;;6.10;99.90;;;;;;6213787;23;20039;-82
2024/01/25 08:12:47;;;;;;;27.45;4.60;;;6.30;99.90;;;;;;6210686;23;20024;-81
2024/01/25 08:15:57;;;;;;;28.50;4.97;;;6.40;99.90;;;;;;6192511;23;20080;-81
2024/01/25 08:18:51;;;;;;;19.80;4.72;;;6.60;99.90;;;;;;6192722;23;20551;-80
2024/01/25 08:21:51;;;;;;;25.77;5.25;;;6.70;99.90;;;;;;6211367;23;20031;-82
2024/01/25 08:24:55;;;;;;;20.58;4.55;;;6.80;99.90;;;;;;6191116;23;20025;-80
2024/01/25 08:27:58;;;;;;;18.33;4.50;;;7.00;99.90;;;;;;6183449;23;20447;-80
2024/01/25 08:31:09;;;;;;;;;;;;;;;;;;;;;
2024/01/25 08:34:06;;;;;;;18.92;4.53;;;7.10;99.90;;;;;;6222050;22;20017;-82
2024/01/25 08:37:22;;;;;;;21.38;4.78;;;7.20;99.90;;;;;;6182565;23;20048;-80
2024/01/25 08:43:55;;;;;;;35.08;5.43;;;7.40;99.90;;;;;;6202623;23;20470;-80
2024/01/25 08:47:41;;;;;;;24.85;4.93;;;7.60;99.90;;;;;;6183737;23;20024;-83
2024/01/25 08:51:37;;;;;;;;;;;;;;;;;;;;;
2024/01/25 08:54:49;;;;;;;26.63;4.75;;;7.90;99.90;;;;;;6190106;23;20024;-82
2024/01/25 08:58:08;;;;;;;18.73;3.92;;;8.30;99.90;;;;;;6192082;23;20052;-80
2024/01/25 09:01:17;;;;;;;24.35;4.20;;;8.90;99.90;;;;;;6186885;23;20033;-83
2024/01/25 09:04:30;;;;;;;23.08;4.28;;;9.30;99.90;;;;;;6193287;23;20017;-82
2024/01/25 09:07:34;;;;;;;17.95;3.67;;;9.40;99.90;;;;;;6195375;23;20025;-80
2024/01/25 09:10:23;;;;;;;20.33;4.55;;;9.60;99.90;;;;;;6203296;23;20035;-82
2024/01/25 09:13:44;;;;;;;17.63;4.13;;;9.40;99.90;;;;;;6199251;23;20071;-80
2024/01/25 09:16:38;;;;;;;16.92;3.63;;;9.30;99.90;;;;;;6196801;23;20565;-80
2024/01/25 09:19:33;;;;;;;25.70;4.85;;;9.50;99.90;;;;;;6198782;23;20024;-79
2024/01/25 09:22:33;;;;;;;19.75;4.70;;;9.70;25.60;;;;;;6179929;23;20026;-81
2024/01/25 09:25:23;;;;;;;19.25;4.35;;;9.60;1.00;;;;;;6203278;23;20490;-81
2024/01/25 09:28:37;;;;;;;25.45;4.63;;;9.80;1.00;;;;;;6200292;23;20024;-80
2024/01/25 09:31:37;;;;;;;21.52;3.83;;;10.30;1.00;;;;;;6195882;23;20025;-82
2024/01/25 09:34:50;;;;;;;15.35;3.90;;;11.30;99.90;;;;;;6184258;23;20038;-82
2024/01/25 09:37:48;;;;;;;18.33;3.97;;;11.20;99.90;;;;;;6201284;23;20035;-82
2024/01/25 09:40:51;;;;;;;20.30;3.65;;;11.30;99.90;;;;;;6182124;23;20032;-82
2024/01/25 09:44:12;;;;;;;25.13;3.90;;;11.60;99.90;;;;;;6202344;23;20108;-80
2024/01/25 09:47:25;;;;;;;24.90;4.30;;;12.30;1.00;;;;;;6199886;23;20035;-82
2024/01/25 09:51:00;;;;;;;22.02;4.35;;;12.80;99.90;;;;;;6185666;23;20024;-79
2024/01/25 09:54:09;;;;;;;19.50;4.32;;;12.60;99.90;;;;;;6208553;23;20100;-80
2024/01/25 09:57:15;;;;;;;19.40;4.07;;;12.90;99.90;;;;;;6188041;23;20468;-81
2024/01/25 10:00:31;;;;;;;18.13;4.57;;;12.50;99.90;;;;;;6187813;23;20028;-81
2024/01/25 10:03:40;;;;;;;23.05;4.70;;;11.70;99.90;;;;;;6210239;23;20031;-81
2024/01/25 10:07:04;;;;;;;22.75;4.85;;;11.30;99.90;;;;;;6189381;23;20448;-80
2024/01/25 10:10:04;;;;;;;19.23;4.63;;;10.80;99.90;;;;;;6182841;23;20519;-81
2024/01/25 10:13:22;;;;;;;20.98;4.18;;;10.20;99.90;;;;;;6176359;23;20036;-80
2024/01/25 10:16:27;;;;;;;17.70;4.50;;;10.10;99.90;;;;;;6152066;23;20029;-81
2024/01/25 10:19:31;;;;;;;22.10;4.07;;;10.10;99.90;;;;;;6185768;23;20033;-83
2024/01/25 10:22:24;;;;;;;19.70;3.40;;;10.40;99.90;;;;;;6154265;23;20029;-81
2024/01/25 10:25:18;;;;;;;18.77;3.72;;;10.60;99.90;;;;;;6189285;23;20025;-80
2024/01/25 10:28:20;;;;;;;22.90;4.00;;;11.20;99.90;;;;;;6187517;23;20305;-79
2024/01/25 10:31:15;;;;;;;;;;;12.30;99.90;;;;;;6169476;23;20025;-79
2024/01/25 10:34:30;;;;;;;21.00;4.20;;;11.90;99.90;;;;;;6174044;23;19931;-83
2024/01/25 10:37:38;;;;;;;23.30;4.32;;;11.60;99.90;;;;;;6171116;22;20009;-81
2024/01/25 10:41:04;;;;;;;21.95;3.55;;;11.30;99.90;;;;;;6177300;23;20095;-79
2024/01/25 10:44:22;;;;;;;20.92;3.70;;;10.70;99.90;;;;;;6068795;23;20270;-78
2024/01/25 10:51:20;;;;;;;13.63;3.08;;;12.30;99.90;;;;;;6058422;23;20034;-81
2024/01/25 10:54:59;;;;;;;16.15;4.00;;;12.00;99.90;;;;;;6082565;23;20071;-82
2024/01/25 10:58:12;;;;;;;23.88;3.85;;;11.10;99.90;;;;;;6065311;23;20045;-82
2024/01/25 11:02:06;;;;;;;17.63;3.15;;;10.40;99.90;;;;;;6057253;23;20022;-83
2024/01/25 11:05:20;;;;;;;18.40;2.83;;;10.80;99.90;;;;;;6103015;23;20018;-80
2024/01/25 11:08:38;;;;;;;11.20;3.17;;;13.50;99.90;;;;;;6003332;23;20032;-78
2024/01/25 11:11:39;;;;;;;13.75;2.85;;;15.10;99.90;;;;;;6079473;23;20493;-81
2024/01/25 11:14:44;;;;;;;17.45;3.42;;;16.50;99.70;;;;;;6078963;23;20026;-80
2024/01/25 11:17:54;;;;;;;14.45;3.42;;;16.50;65.70;;;;;;6079968;23;20441;-79
2024/01/25 11:21:16;;;;;;;;;;;;;;;;;;;;;
2024/01/25 11:25:02;;;;;;;;;;;;;;;;;;;;;
2024/01/25 11:28:35;;;;;;;11.32;2.95;;;18.40;3.90;;;;;;6172109;23;20626;-80
2024/01/25 11:32:05;;;;;;;;;;;;;;;;;;;;;
2024/01/25 11:35:25;;;;;;;15.52;3.05;;;17.50;1.00;;;;;;6171299;23;20044;-82
2024/01/25 11:38:18;;;;;;;16.40;3.15;;;17.30;1.00;;;;;;6153963;23;20036;-80
2024/01/25 11:41:06;;;;;;;8.90;2.70;;;16.30;1.00;;;;;;6174793;23;20033;-81
2024/01/25 11:43:56;;;;;;;18.98;3.17;;;16.20;1.00;;;;;;6175275;23;20025;-83
2024/01/25 11:46:50;;;;;;;11.57;3.17;;;16.10;1.00;;;;;;6149988;23;20602;-81
2024/01/25 11:49:52;;;;;;;13.98;2.80;;;16.90;1.00;;;;;;6173433;23;20025;-82
2024/01/25 11:52:47;;;;;;;9.40;2.47;;;16.60;1.00;;;;;;6171724;23;20215;-82
2024/01/25 11:55:58;;;;;;;17.05;2.63;;;16.70;1.00;;;;;;6157165;23;20153;-81
2024/01/25 11:59:02;;;;;;;9.98;2.78;;;16.20;1.00;;;;;;6155484;23;20119;-80
2024/01/25 12:02:24;;;;;;;13.93;3.10;;;16.50;1.00;;;;;;6169061;23;20152;-79
2024/01/25 12:09:17;;;;;;;9.23;2.83;;;16.80;1.00;;;;;;6183310;23;20029;-80
2024/01/25 12:12:19;;;;;;;16.20;3.17;;;16.70;1.00;;;;;;6158724;23;20029;-82
2024/01/25 12:15:17;;;;;;;13.75;3.28;;;14.90;1.00;;;;;;6152696;23;20028;-79
2024/01/25 12:18:19;;;;;;;15.82;3.50;;;14.00;1.00;;;;;;6151601;23;20064;-82
2024/01/25 12:21:09;;;;;;;16.35;3.00;;;13.20;1.00;;;;;;6171890;23;20029;-78
2024/01/25 12:24:05;;;;;;;14.90;3.38;;;13.70;1.00;;;;;;6173010;23;20029;-81
2024/01/25 12:27:07;;;;;;;14.73;3.22;;;14.40;1.00;;;;;;6182611;23;20040;-80
2024/01/25 12:30:06;;;;;;;14.40;2.70;;;14.70;1.00;;;;;;6159568;23;20032;-80
2024/01/25 12:33:11;;;;;;;11.00;2.65;;;15.70;1.00;;;;;;6177094;23;20025;-78
2024/01/25 12:36:04;;;;;;;11.30;2.63;;;17.50;1.00;;;;;;6172027;23;20033;-79
2024/01/25 12:38:58;;;;;;;11.00;2.63;;;18.80;1.00;;;;;;6152364;23;20040;-81
2024/01/25 12:41:50;;;;;;;11.70;2.88;;;18.20;1.00;;;;;;6150866;23;20057;-81
2024/01/25 12:45:03;;;;;;;12.68;2.80;;;18.40;1.00;;;;;;6174079;23;20524;-81
2024/01/25 12:47:53;;;;;;;9.85;3.13;;;17.30;1.00;;;;;;6180675;23;20100;-81
2024/01/25 12:50:41;;;;;;;10.88;3.10;;;16.20;1.00;;;;;;6175610;23;20103;-82
2024/01/25 12:54:00;;;;;;;10.13;2.88;;;16.00;1.00;;;;;;6170220;23;20036;-81
2024/01/25 12:56:55;;;;;;;8.10;2.63;;;16.20;1.00;;;;;;6172315;23;20021;-79
2024/01/25 13:00:20;;;;;;;9.35;2.88;;;16.30;1.00;;;;;;6171056;23;20517;-79
2024/01/25 13:03:13;;;;;;;11.63;2.53;;;16.80;1.00;;;;;;6171841;23;20036;-80
2024/01/25 13:06:04;;;;;;;9.45;2.47;;;16.50;1.00;;;;;;6153862;23;20416;-83
2024/01/25 13:08:55;;;;;;;11.40;2.30;;;17.50;1.00;;;;;;6173726;23;20032;-81
2024/01/25 13:12:24;;;;;;;9.20;2.58;;;18.50;1.00;;;;;;6182199;23;20124;-83
2024/01/25 13:16:06;;;;;;;8.98;2.28;;;19.80;1.00;;;;;;6175025;23;20029;-83
2024/01/25 13:19:34;;;;;;;12.73;3.00;;;19.70;1.00;;;;;;6174375;23;20496;-82
2024/01/25 13:22:40;;;;;;;11.15;2.50;;;18.30;1.00;;;;;;6153324;23;20036;-80
2024/01/25 13:25:52;;;;;;;6.55;2.25;;;17.90;1.00;;;;;;6169696;23;20028;-79
2024/01/25 13:28:52;;;;;;;5.60;2.10;;;17.70;1.00;;;;;;6185073;23;20272;-79
2024/01/25 13:31:53;;;;;;;8.25;2.10;;;17.30;1.00;;;;;;6188995;23;20093;-81
2024/01/25 13:34:43;;;;;;;14.00;2.90;;;17.10;1.00;;;;;;6195721;22;20084;-77
2024/01/25 13:37:32;;;;;;;8.80;2.22;;;16.70;1.00;;;;;;6185716;22;20025;-78
2024/01/25 13:40:25;;;;;;;7.53;2.25;;;16.80;1.00;;;;;;6177889;22;20016;-78
2024/01/25 13:43:15;;;;;;;7.72;2.17;;;16.70;1.00;;;;;;6170080;23;20021;-82
2024/01/25 13:46:05;;;;;;;9.27;2.58;;;16.60;1.00;;;;;;6178691;23;20025;-76
2024/01/25 13:48:59;;;;;;;12.13;2.90;;;15.70;1.00;;;;;;6171829;23;20360;-79
2024/01/25 13:51:54;;;;;;;10.63;2.75;;;14.60;1.00;;;;;;6182161;23;20028;-80
2024/01/25 13:55:08;;;;;;;13.23;3.13;;;13.90;1.00;;;;;;6185165;23;20035;-82
2024/01/25 13:57:59;;;;;;;10.07;2.55;;;13.40;1.00;;;;;;6182870;23;20437;-80
2024/01/25 14:00:52;;;;;;;15.55;2.72;;;13.20;1.00;;;;;;6173327;23;20308;-78
2024/01/25 14:03:40;;;;;;;19.92;3.58;;;12.30;1.00;;;;;;6160814;23;20025;-80
2024/01/25 14:06:54;;;;;;;14.00;3.10;;;11.50;1.00;;;;;;6182560;23;20028;-81
2024/01/25 14:09:51;;;;;;;13.88;3.38;;;11.10;1.00;;;;;;6164013;23;20029;-83
2024/01/25 14:12:59;;;;;;;17.65;3.47;;;10.80;10.90;;;;;;6173999;23;20099;-81
2024/01/25 14:15:56;;;;;;;18.92;3.35;;;10.60;19.40;;;;;;6153937;23;20029;-80
2024/01/25 14:18:51;;;;;;;13.73;2.88;;;10.50;33.90;;;;;;6173475;23;20021;-82
2024/01/25 14:21:44;;;;;;;16.75;3.67;;;10.40;50.50;;;;;;6178551;23;20036;-79
2024/01/25 14:25:14;;;;;;;15.15;3.15;;;10.30;64.10;;;;;;6172459;23;20075;-82
2024/01/25 14:28:22;;;;;;;18.15;3.45;;;10.20;95.50;;;;;;6157733;23;20401;-80
2024/01/25 14:31:32;;;;;;;16.92;3.67;;;10.10;99.90;;;;;;6177062;23;20065;-79
2024/01/25 14:34:28;;;;;;;18.80;3.17;;;10.00;99.90;;;;;;6172365;23;20029;-82
2024/01/25 14:37:33;;;;;;;15.15;2.65;;;9.90;99.90;;;;;;6193406;22;20016;-77
2024/01/25 14:40:34;;;;;;;10.45;2.85;;;9.80;99.90;;;;;;6197702;23;20060;-77
2024/01/25 14:44:05;;;;;;;13.15;2.60;;;9.80;99.90;;;;;;6200203;22;20060;-83
2024/01/25 14:47:36;;;;;;;12.98;3.08;;;9.60;99.90;;;;;;6197656;22;20072;-81
2024/01/25 14:51:13;;;;;;;12.00;2.63;;;9.60;99.90;;;;;;6189730;23;20036;-82
2024/01/25 14:54:23;;;;;;;15.00;3.00;;;9.60;99.90;;;;;;6175994;23;20025;-83
2024/01/25 14:57:43;;;;;;;13.90;3.22;;;9.50;99.90;;;;;;6186742;23;20029;-83
2024/01/25 15:01:43;;;;;;;9.13;2.40;;;9.30;1.00;;;;;;6175654;23;20032;-84
2024/01/25 15:05:01;;;;;;;14.10;3.80;;;9.30;1.00;;;;;;6156126;23;20025;-81
2024/01/25 15:08:18;;;;;;;8.35;2.78;;;9.30;59.50;;;;;;6095417;23;20053;-83
2024/01/25 15:11:42;;;;;;;9.52;2.90;;;9.40;68.30;;;;;;6137418;23;20068;-83
2024/01/25 15:15:01;;;;;;;9.43;2.65;;;9.30;93.80;;;;;;6177938;23;20028;-84
2024/01/25 15:18:24;;;;;;;;;;;;;;;;;;;;;
2024/01/25 15:21:48;;;;;;;12.87;2.83;;;9.40;1.00;;;;;;6172122;23;20535;-80
2024/01/25 15:24:47;;;;;;;21.45;3.28;;;9.40;1.00;;;;;;6175524;23;20156;-79
2024/01/25 15:27:41;;;;;;;14.40;2.65;;;9.40;1.00;;;;;;6184171;23;20396;-81
2024/01/25 15:30:39;;;;;;;10.48;2.13;;;9.40;1.00;;;;;;6160519;23;20035;-81
2024/01/25 15:33:39;;;;;;;11.48;2.42;;;9.40;99.90;;;;;;6181068;23;20048;-81
2024/01/25 15:36:43;;;;;;;12.45;2.40;;;9.50;99.90;;;;;;6183214;23;20032;-82
2024/01/25 15:39:44;;;;;;;10.32;2.28;;;9.50;99.90;;;;;;6169076;23;20460;-83
2024/01/25 15:43:04;;;;;;;9.13;2.10;;;9.50;99.90;;;;;;6173416;23;20033;-80
2024/01/25 15:46:12;;;;;;;6.05;2.25;;;9.50;99.90;;;;;;6182964;23;20101;-80
2024/01/25 15:49:15;;;;;;;10.38;2.60;;;9.50;99.90;;;;;;6173175;23;20309;-80
2024/01/25 15:52:13;;;;;;;6.85;2.30;;;9.50;99.90;;;;;;6171788;23;20338;-79
2024/01/25 15:55:46;;;;;;;10.63;2.80;;;9.50;99.90;;;;;;6171983;23;20029;-81